Terminal Aerodrome Forecast
Issued by NWS

Home | Current Version | Previous Version | Text Only | Print | Product List | Glossary On
Versions: 1 2 3 4 5 6 7 8 9 10 11 12 13 14 15 16 17 18 19 20 21 22 23 24 25 26 27 28 29 30 31 32 33
000
FTUS43 KLOT 031700
TAFORD
TAF
KORD 031735Z 0318/0424 20016G25KT 1 1/2SM -FZDZ OVC007
     FM031900 21015G25KT 2SM -DZ BR OVC007
     FM032100 24015G25KT 4SM BR OVC008
     FM040200 29011KT P6SM OVC015
     FM041400 30012G20KT P6SM SCT025 BKN150
     FM041800 30015G25KT P6SM BKN100=

USA.gov is the U.S. government's official web portal to all federal, state and local government web resources and services.